createdAt,value
2023-01-08T00:01:26.716Z,99038.52
2023-01-08T00:03:54.970Z,99033.39
2023-01-08T00:06:25.394Z,99025.13
2023-01-08T00:08:53.639Z,99023.78
2023-01-08T00:11:21.619Z,99023.55
2023-01-08T00:13:49.825Z,99027.55
2023-01-08T00:16:18.989Z,99019.48
2023-01-08T00:18:47.837Z,99006.04
2023-01-08T00:21:16.247Z,99002.09
2023-01-08T00:23:44.322Z,98998.41
2023-01-08T00:26:13.570Z,98992.83
2023-01-08T00:28:42.073Z,98991.45
2023-01-08T00:31:12.787Z,98986.49
2023-01-08T00:33:41.042Z,98981.65
2023-01-08T00:36:15.349Z,98976.68
2023-01-08T00:38:45.046Z,98978.48
2023-01-08T00:41:14.703Z,98980.35
2023-01-08T00:43:43.048Z,98980.48
2023-01-08T00:46:11.159Z,98979.27
2023-01-08T00:48:39.337Z,98978.82
2023-01-08T00:51:08.889Z,98981.69
2023-01-08T00:53:38.332Z,98980.91
2023-01-08T00:56:08.984Z,98985.93
2023-01-08T00:58:37.106Z,98986.03
2023-01-08T01:01:14.976Z,98985.00
2023-01-08T01:03:43.845Z,98985.27
2023-01-08T01:06:13.860Z,98992.17
2023-01-08T01:08:43.369Z,98985.58
2023-01-08T01:11:23.958Z,98982.69
2023-01-08T01:13:52.855Z,98975.33
2023-01-08T01:16:21.554Z,98970.48
2023-01-08T01:18:49.846Z,98964.48
2023-01-08T01:21:26.550Z,98963.29
2023-01-08T01:23:57.176Z,98953.52
2023-01-08T01:26:25.826Z,98952.86
2023-01-08T01:28:56.022Z,98949.69
2023-01-08T01:31:26.153Z,98945.55
2023-01-08T01:33:54.191Z,98940.36
2023-01-08T01:36:24.114Z,98944.55
2023-01-08T01:38:54.835Z,98942.92
2023-01-08T01:41:38.040Z,98942.67
2023-01-08T01:44:33.982Z,98936.33
2023-01-08T01:47:30.516Z,98934.80
2023-01-08T01:50:26.817Z,98931.66
2023-01-08T01:53:10.229Z,98933.14
2023-01-08T01:55:40.750Z,98929.58
2023-01-08T01:58:14.595Z,98930.77
2023-01-08T02:06:07.213Z,98944.33
2023-01-08T02:08:57.234Z,98949.70
2023-01-08T02:11:31.260Z,98948.42
2023-01-08T02:14:17.534Z,98949.36
2023-01-08T02:17:00.904Z,98947.30
2023-01-08T02:19:45.724Z,98944.67
2023-01-08T02:22:20.991Z,98940.71
2023-01-08T02:25:07.577Z,98933.05
2023-01-08T02:27:38.219Z,98933.20
2023-01-08T02:30:06.923Z,98932.36
2023-01-08T02:32:38.640Z,98924.38
2023-01-08T02:35:07.532Z,98924.67
2023-01-08T02:37:36.533Z,98921.86
2023-01-08T02:40:12.101Z,98924.95
2023-01-08T02:43:06.409Z,98928.20
2023-01-08T02:45:48.378Z,98926.42
2023-01-08T02:48:34.520Z,98920.81
2023-01-08T02:51:24.545Z,98916.18
2023-01-08T02:53:59.702Z,98915.56
2023-01-08T02:56:33.373Z,98913.25
2023-01-08T02:59:03.731Z,98909.11
2023-01-08T03:01:34.621Z,98910.23
2023-01-08T03:04:09.127Z,98906.33
2023-01-08T03:06:38.853Z,98908.41
2023-01-08T03:09:07.127Z,98911.48
2023-01-08T03:11:45.716Z,98912.56
2023-01-08T03:14:28.583Z,98913.69
2023-01-08T03:17:36.164Z,98912.67
2023-01-08T03:20:11.719Z,98902.98
2023-01-08T03:22:42.272Z,98899.67
2023-01-08T03:25:13.270Z,98904.94
2023-01-08T03:27:45.712Z,98901.00
2023-01-08T03:30:15.758Z,98905.73
2023-01-08T03:32:45.778Z,98903.10
2023-01-08T03:35:20.034Z,98903.19
2023-01-08T03:38:11.825Z,98902.95
2023-01-08T03:40:45.527Z,98901.62
2023-01-08T03:43:13.982Z,98898.73
2023-01-08T03:45:50.396Z,98897.63
2023-01-08T03:48:20.312Z,98893.61
2023-01-08T03:50:49.180Z,98891.36
2023-01-08T03:53:17.350Z,98890.02
2023-01-08T03:55:45.376Z,98888.92
2023-01-08T03:58:13.798Z,98889.84
2023-01-08T04:00:41.936Z,98886.52
2023-01-08T04:03:10.081Z,98884.08
2023-01-08T04:05:38.563Z,98878.30
2023-01-08T04:08:06.733Z,98877.22
2023-01-08T04:10:34.941Z,98877.22
2023-01-08T04:13:03.046Z,98868.13
2023-01-08T04:15:31.346Z,98865.34
2023-01-08T04:17:59.335Z,98867.64
2023-01-08T04:20:27.643Z,98864.95
2023-01-08T04:22:55.885Z,98860.95
2023-01-08T04:25:23.927Z,98862.46
2023-01-08T04:27:52.293Z,98860.72
2023-01-08T04:30:20.375Z,98863.86
2023-01-08T04:32:48.447Z,98861.75
2023-01-08T04:35:16.599Z,98855.14
2023-01-08T04:37:44.683Z,98855.83
2023-01-08T04:40:12.894Z,98859.99
2023-01-08T04:42:41.014Z,98856.48
2023-01-08T04:45:09.481Z,98856.30
2023-01-08T04:47:38.250Z,98860.90
2023-01-08T04:50:06.747Z,98863.92
2023-01-08T04:52:35.244Z,98859.88
2023-01-08T04:55:03.843Z,98858.34
2023-01-08T04:57:31.980Z,98856.08
2023-01-08T05:00:00.164Z,98846.92
2023-01-08T05:02:28.565Z,98840.93
2023-01-08T05:04:57.015Z,98839.31
2023-01-08T05:07:25.328Z,98829.87
2023-01-08T05:09:53.308Z,98831.97
2023-01-08T05:12:21.747Z,98831.15
2023-01-08T05:14:49.936Z,98824.05
2023-01-08T05:17:17.939Z,98823.02
2023-01-08T05:19:46.073Z,98826.75
2023-01-08T05:22:14.683Z,98824.37
2023-01-08T05:24:42.656Z,98820.14
2023-01-08T05:27:10.652Z,98823.15
2023-01-08T05:29:38.910Z,98825.91
2023-01-08T05:32:14.932Z,98820.80
2023-01-08T05:34:43.410Z,98829.86
2023-01-08T05:37:12.062Z,98832.19
2023-01-08T05:39:40.080Z,98826.44
2023-01-08T05:42:08.572Z,98825.30
2023-01-08T05:44:36.663Z,98819.41
2023-01-08T05:47:04.819Z,98812.97
2023-01-08T05:49:33.063Z,98810.89
2023-01-08T05:52:01.063Z,98807.89
2023-01-08T05:54:29.046Z,98808.09
2023-01-08T05:56:57.565Z,98803.23
2023-01-08T05:59:25.792Z,98803.27
2023-01-08T06:01:53.986Z,98807.59
2023-01-08T06:04:22.883Z,98798.94
2023-01-08T06:06:50.926Z,98794.86
2023-01-08T06:09:19.935Z,98795.80
2023-01-08T06:11:48.059Z,98785.13
2023-01-08T06:14:17.146Z,98769.70
2023-01-08T06:16:47.123Z,98763.20
2023-01-08T06:19:15.331Z,98765.30
2023-01-08T06:21:43.532Z,98768.38
2023-01-08T06:24:11.758Z,98771.22
2023-01-08T06:26:40.056Z,98769.23
2023-01-08T06:29:08.422Z,98773.05
2023-01-08T06:31:36.451Z,98776.06
2023-01-08T06:34:04.839Z,98783.09
2023-01-08T06:36:32.838Z,98775.34
2023-01-08T06:39:00.912Z,98778.59
2023-01-08T06:41:29.185Z,98780.64
2023-01-08T06:43:57.431Z,98774.16
2023-01-08T06:46:25.544Z,98765.42
2023-01-08T06:48:54.631Z,98761.86
2023-01-08T06:51:22.828Z,98758.25
2023-01-08T06:53:50.822Z,98760.53
2023-01-08T06:56:18.950Z,98764.36
2023-01-08T06:58:47.045Z,98768.66
2023-01-08T07:01:16.295Z,98773.23
2023-01-08T07:03:45.059Z,98773.33
2023-01-08T07:06:19.639Z,98771.83
2023-01-08T07:08:48.086Z,98771.80
2023-01-08T07:11:16.838Z,98774.26
2023-01-08T07:13:44.837Z,98770.77
2023-01-08T07:16:15.105Z,98768.55
2023-01-08T07:18:43.249Z,98769.44
2023-01-08T07:21:11.335Z,98767.45
2023-01-08T07:23:39.541Z,98766.09
2023-01-08T07:26:08.386Z,98762.74
2023-01-08T07:28:36.452Z,98757.50
2023-01-08T07:31:08.046Z,98751.22
2023-01-08T07:33:36.745Z,98756.14
2023-01-08T07:36:05.751Z,98764.79
2023-01-08T07:38:33.966Z,98764.66
2023-01-08T07:41:02.146Z,98765.63
2023-01-08T07:43:30.609Z,98765.11
2023-01-08T07:45:59.217Z,98768.58
2023-01-08T07:48:27.482Z,98770.35
2023-01-08T07:51:01.311Z,98767.81
2023-01-08T07:53:29.571Z,98763.82
2023-01-08T07:56:02.352Z,98761.87
2023-01-08T07:58:31.203Z,98764.45
2023-01-08T08:00:59.520Z,98770.16
2023-01-08T08:03:27.862Z,98775.94
2023-01-08T08:05:56.095Z,98769.88
2023-01-08T08:08:24.215Z,98761.39
2023-01-08T08:10:52.339Z,98756.80
2023-01-08T08:13:20.377Z,98752.88
2023-01-08T08:15:48.503Z,98754.25
2023-01-08T08:18:16.760Z,98747.15
2023-01-08T08:20:44.983Z,98746.01
2023-01-08T08:23:15.377Z,98741.52
2023-01-08T08:25:43.711Z,98737.48
2023-01-08T08:28:12.335Z,98737.23
2023-01-08T08:30:42.542Z,98735.80
2023-01-08T08:33:11.265Z,98734.16
2023-01-08T08:35:40.823Z,98737.98
2023-01-08T08:38:09.255Z,98734.95
2023-01-08T08:40:37.358Z,98732.80
2023-01-08T08:43:05.652Z,98729.88
2023-01-08T08:45:33.607Z,98735.01
2023-01-08T08:48:02.183Z,98737.37
2023-01-08T08:50:30.280Z,98728.79
2023-01-08T08:53:02.963Z,98726.80
2023-01-08T08:55:31.868Z,98727.02
2023-01-08T08:58:11.102Z,98728.60
2023-01-08T09:00:40.302Z,98725.34
2023-01-08T09:03:13.704Z,98723.58
2023-01-08T09:05:43.270Z,98721.24
2023-01-08T09:08:12.812Z,98719.05
2023-01-08T09:10:42.626Z,98716.04
2023-01-08T09:13:11.345Z,98716.56
2023-01-08T09:15:39.376Z,98717.58
2023-01-08T09:18:07.632Z,98712.73
2023-01-08T09:20:35.890Z,98710.63
2023-01-08T09:23:04.296Z,98708.69
2023-01-08T09:25:32.650Z,98706.14
2023-01-08T09:28:07.376Z,98699.08
2023-01-08T09:30:35.864Z,98699.72
2023-01-08T09:33:05.510Z,98695.31
2023-01-08T09:35:33.863Z,98684.30
2023-01-08T09:38:02.508Z,98681.73
2023-01-08T09:40:50.189Z,98679.86
2023-01-08T09:43:21.643Z,98677.30
2023-01-08T09:45:55.021Z,98673.92
2023-01-08T09:48:28.647Z,98666.39
2023-01-08T09:50:57.904Z,98665.20
2023-01-08T09:53:26.591Z,98658.09
2023-01-08T09:56:11.142Z,98656.02
2023-01-08T09:58:54.615Z,98653.55
2023-01-08T10:01:25.366Z,98646.43
2023-01-08T10:04:23.116Z,98641.79
2023-01-08T10:07:00.282Z,98636.01
2023-01-08T10:09:31.371Z,98638.23
2023-01-08T10:12:05.462Z,98637.23
2023-01-08T10:14:39.840Z,98635.67
2023-01-08T10:17:15.600Z,98637.36
2023-01-08T10:19:45.552Z,98639.15
2023-01-08T10:22:17.221Z,98639.91
2023-01-08T10:24:45.787Z,98638.84
2023-01-08T10:27:16.923Z,98641.64
2023-01-08T10:29:45.852Z,98632.86
2023-01-08T10:32:17.203Z,98629.27
2023-01-08T10:34:52.194Z,98620.45
2023-01-08T10:37:26.536Z,98615.46
2023-01-08T10:40:00.885Z,98612.27
2023-01-08T10:42:35.191Z,98611.02
2023-01-08T10:45:07.822Z,98607.48
2023-01-08T10:47:36.857Z,98594.55
2023-01-08T10:50:15.844Z,98595.47
2023-01-08T10:52:53.676Z,98598.52
2023-01-08T10:55:39.873Z,98603.86
2023-01-08T10:58:11.307Z,98607.08
2023-01-08T11:00:40.131Z,98603.64
2023-01-08T11:03:21.128Z,98598.34
2023-01-08T11:05:50.202Z,98599.45
2023-01-08T11:08:23.040Z,98598.70
2023-01-08T11:10:57.480Z,98598.36
2023-01-08T11:13:26.333Z,98599.42
2023-01-08T11:16:12.904Z,98596.21
2023-01-08T11:18:50.303Z,98600.38
2023-01-08T11:21:28.225Z,98600.84
2023-01-08T11:24:12.886Z,98590.82
2023-01-08T11:26:46.107Z,98589.71
2023-01-08T11:29:32.957Z,98594.59
2023-01-08T11:32:18.568Z,98587.83
2023-01-08T11:35:10.212Z,98583.98
2023-01-08T11:37:54.253Z,98580.54
2023-01-08T11:40:31.619Z,98581.14
2023-01-08T11:43:05.449Z,98590.00
2023-01-08T11:46:10.915Z,98586.46
2023-01-08T11:48:50.219Z,98583.11
2023-01-08T11:51:36.127Z,98582.44
2023-01-08T11:54:23.153Z,98581.80
2023-01-08T11:57:18.833Z,98579.35
2023-01-08T12:00:11.469Z,98571.42
2023-01-08T12:02:58.022Z,98570.16
2023-01-08T12:05:59.728Z,98565.06
2023-01-08T12:08:45.806Z,98562.41
2023-01-08T12:11:28.997Z,98562.21
2023-01-08T12:14:18.585Z,98559.98
2023-01-08T12:17:49.096Z,98558.19
2023-01-08T12:20:36.793Z,98556.30
2023-01-08T12:23:42.192Z,98553.39
2023-01-08T12:26:40.489Z,98548.49
2023-01-08T12:29:19.745Z,98550.05
2023-01-08T12:32:05.692Z,98544.70
2023-01-08T12:34:42.175Z,98540.34
2023-01-08T12:37:26.126Z,98530.70
2023-01-08T12:40:04.229Z,98524.66
2023-01-08T12:42:34.534Z,98517.15
2023-01-08T12:45:05.882Z,98520.40
2023-01-08T12:47:37.702Z,98515.54
2023-01-08T12:50:14.999Z,98517.03
2023-01-08T12:53:14.041Z,98517.47
2023-01-08T12:55:42.278Z,98517.44
2023-01-08T12:58:31.166Z,98513.52
2023-01-08T13:01:29.092Z,98506.37
2023-01-08T13:03:59.296Z,98501.50
2023-01-08T13:06:27.805Z,98504.90
2023-01-08T13:09:00.540Z,98503.85
2023-01-08T13:11:35.163Z,98502.81
2023-01-08T13:14:10.936Z,98500.73
2023-01-08T13:16:41.692Z,98498.27
2023-01-08T13:19:26.154Z,98493.82
2023-01-08T13:21:57.340Z,98499.09
2023-01-08T13:24:28.820Z,98497.42
2023-01-08T13:26:58.027Z,98487.14
2023-01-08T13:29:47.464Z,98485.36
2023-01-08T13:32:34.519Z,98483.79
2023-01-08T13:35:08.425Z,98474.39
2023-01-08T13:37:36.723Z,98470.05
2023-01-08T13:40:07.138Z,98475.13
2023-01-08T13:42:35.219Z,98481.23
2023-01-08T13:45:04.971Z,98485.95
2023-01-08T13:47:35.540Z,98484.85
2023-01-08T13:50:17.901Z,98483.25
2023-01-08T13:52:57.438Z,98487.86
2023-01-08T13:55:33.623Z,98496.91
2023-01-08T13:58:06.109Z,98505.20
2023-01-08T14:00:46.467Z,98509.45
2023-01-08T14:03:28.084Z,98508.84
2023-01-08T14:06:17.717Z,98513.41
2023-01-08T14:09:19.135Z,98522.58
2023-01-08T14:11:49.157Z,98523.79
2023-01-08T14:14:20.522Z,98519.02
2023-01-08T14:16:50.380Z,98511.80
2023-01-08T14:19:22.453Z,98508.86
2023-01-08T14:21:52.587Z,98505.40
2023-01-08T14:24:24.242Z,98502.92
2023-01-08T14:26:57.734Z,98500.22
2023-01-08T14:29:34.610Z,98501.77
2023-01-08T14:32:16.130Z,98501.66
2023-01-08T14:34:45.707Z,98496.52
2023-01-08T14:37:16.383Z,98493.80
2023-01-08T14:39:46.439Z,98491.41
2023-01-08T14:42:46.896Z,98492.12
2023-01-08T14:45:24.500Z,98491.86
2023-01-08T14:47:56.708Z,98492.56
2023-01-08T14:50:29.710Z,98488.63
2023-01-08T14:53:04.045Z,98478.33
2023-01-08T14:55:35.281Z,98465.02
2023-01-08T14:58:03.956Z,98454.24
2023-01-08T15:00:32.364Z,98441.61
2023-01-08T15:03:00.717Z,98441.41
2023-01-08T15:05:31.490Z,98437.40
2023-01-08T15:08:40.255Z,98441.39
2023-01-08T15:11:23.506Z,98446.85
2023-01-08T15:13:53.856Z,98436.30
2023-01-08T15:16:44.802Z,98425.03
2023-01-08T15:19:17.821Z,98425.58
2023-01-08T15:21:50.464Z,98418.41
2023-01-08T15:24:22.818Z,98420.61
2023-01-08T15:26:52.514Z,98411.88
2023-01-08T15:29:35.782Z,98411.70
2023-01-08T15:32:19.060Z,98414.17
2023-01-08T15:34:47.264Z,98419.09
2023-01-08T15:37:16.121Z,98414.80
2023-01-08T15:39:44.295Z,98409.34
2023-01-08T15:42:40.563Z,98406.48
2023-01-08T15:45:17.709Z,98411.60
2023-01-08T15:47:46.687Z,98408.37
2023-01-08T15:50:15.448Z,98413.96
2023-01-08T15:52:44.046Z,98419.73
2023-01-08T15:55:18.486Z,98423.07
2023-01-08T15:57:46.819Z,98422.83
2023-01-08T16:00:16.691Z,98411.23
2023-01-08T16:02:47.213Z,98399.64
2023-01-08T16:05:17.814Z,98405.09
2023-01-08T16:07:46.433Z,98412.66
2023-01-08T16:10:18.531Z,98409.29
2023-01-08T16:12:47.284Z,98410.80
2023-01-08T16:15:16.153Z,98410.14
2023-01-08T16:17:45.251Z,98414.08
2023-01-08T16:20:14.617Z,98417.02
2023-01-08T16:22:43.025Z,98420.52
2023-01-08T16:25:11.755Z,98431.93
2023-01-08T16:27:41.135Z,98430.03
2023-01-08T16:30:14.806Z,98422.41
2023-01-08T16:32:43.666Z,98411.09
2023-01-08T16:35:11.754Z,98414.98
2023-01-08T16:37:40.154Z,98407.30
2023-01-08T16:40:09.823Z,98395.90
2023-01-08T16:42:38.042Z,98394.95
2023-01-08T16:45:07.962Z,98379.05
2023-01-08T16:47:38.485Z,98364.30
2023-01-08T16:50:07.751Z,98374.06
2023-01-08T16:52:38.440Z,98385.36
2023-01-08T16:55:07.282Z,98376.42
2023-01-08T16:57:35.409Z,98361.29
2023-01-08T17:00:05.309Z,98367.91
2023-01-08T17:02:33.472Z,98368.65
2023-01-08T17:05:03.210Z,98363.29
2023-01-08T17:07:31.344Z,98361.86
2023-01-08T17:09:59.393Z,98355.09
2023-01-08T17:12:27.521Z,98355.07
2023-01-08T17:14:55.662Z,98362.63
2023-01-08T17:17:24.052Z,98366.90
2023-01-08T17:19:52.164Z,98370.48
2023-01-08T17:22:20.310Z,98369.79
2023-01-08T17:24:48.930Z,98366.33
2023-01-08T17:27:17.137Z,98372.33
2023-01-08T17:29:45.190Z,98365.59
2023-01-08T17:32:14.271Z,98366.02
2023-01-08T17:34:42.270Z,98367.21
2023-01-08T17:37:10.576Z,98362.04
2023-01-08T17:39:38.889Z,98361.38
2023-01-08T17:42:25.280Z,98354.59
2023-01-08T17:44:55.545Z,98351.16
2023-01-08T17:47:24.794Z,98349.45
2023-01-08T17:49:56.769Z,98349.48
2023-01-08T17:52:25.856Z,98347.80
2023-01-08T17:54:54.199Z,98348.23
2023-01-08T17:57:23.112Z,98341.63
2023-01-08T17:59:51.523Z,98339.48
2023-01-08T18:02:19.689Z,98340.73
2023-01-08T18:04:48.677Z,98340.52
2023-01-08T18:07:16.880Z,98337.65
2023-01-08T18:09:45.142Z,98335.16
2023-01-08T18:12:13.566Z,98337.27
2023-01-08T18:14:42.055Z,98337.15
2023-01-08T18:17:10.403Z,98332.75
2023-01-08T18:19:38.813Z,98329.34
2023-01-08T18:22:07.069Z,98333.43
2023-01-08T18:24:35.619Z,98333.92
2023-01-08T18:27:03.872Z,98332.74
2023-01-08T18:29:32.221Z,98335.73
2023-01-08T18:32:00.454Z,98332.89
2023-01-08T18:34:28.709Z,98330.10
2023-01-08T18:36:57.039Z,98332.23
2023-01-08T18:39:27.435Z,98335.41
2023-01-08T18:42:14.396Z,98328.67
2023-01-08T18:44:42.558Z,98334.62
2023-01-08T18:47:12.550Z,98337.52
2023-01-08T18:49:40.776Z,98338.82
2023-01-08T18:52:11.003Z,98340.64
2023-01-08T18:54:39.023Z,98338.39
2023-01-08T18:57:07.312Z,98332.80
2023-01-08T18:59:35.893Z,98340.55
2023-01-08T19:02:04.124Z,98338.02
2023-01-08T19:04:32.462Z,98334.83
2023-01-08T19:07:00.897Z,98334.27
2023-01-08T19:09:29.018Z,98331.81
2023-01-08T19:11:57.116Z,98331.26
2023-01-08T19:14:25.203Z,98332.06
2023-01-08T19:16:53.282Z,98321.47
2023-01-08T19:19:21.456Z,98321.23
2023-01-08T19:21:50.249Z,98316.14
2023-01-08T19:24:18.351Z,98312.69
2023-01-08T19:26:46.805Z,98310.44
2023-01-08T19:29:15.449Z,98316.13
2023-01-08T19:31:43.750Z,98315.92
2023-01-08T19:34:31.106Z,98310.86
2023-01-08T19:37:01.188Z,98310.38
2023-01-08T19:39:30.033Z,98302.81
2023-01-08T19:42:17.819Z,98305.15
2023-01-08T19:44:45.970Z,98300.25
2023-01-08T19:47:14.080Z,98296.61
2023-01-08T19:49:47.710Z,98297.84
2023-01-08T19:52:16.682Z,98299.02
2023-01-08T19:54:45.729Z,98296.30
2023-01-08T19:57:14.506Z,98301.71
2023-01-08T19:59:42.860Z,98301.23
2023-01-08T20:02:11.062Z,98296.02
2023-01-08T20:04:48.567Z,98290.24
2023-01-08T20:07:16.752Z,98283.59
2023-01-08T20:09:44.771Z,98284.80
2023-01-08T20:12:14.145Z,98284.98
2023-01-08T20:14:42.516Z,98278.38
2023-01-08T20:17:11.915Z,98273.83
2023-01-08T20:19:40.077Z,98272.17
2023-01-08T20:22:08.254Z,98272.35
2023-01-08T20:24:38.101Z,98277.68
2023-01-08T20:27:07.872Z,98274.77
2023-01-08T20:29:36.391Z,98266.63
2023-01-08T20:32:06.086Z,98269.54
2023-01-08T20:34:34.493Z,98263.02
2023-01-08T20:37:05.898Z,98250.84
2023-01-08T20:39:34.136Z,98238.91
2023-01-08T20:42:04.615Z,98236.28
2023-01-08T20:44:33.577Z,98230.96
2023-01-08T20:47:01.819Z,98227.80
2023-01-08T20:49:29.981Z,98227.09
2023-01-08T20:52:00.455Z,98224.29
2023-01-08T20:54:30.213Z,98219.67
2023-01-08T20:56:59.750Z,98216.01
2023-01-08T20:59:29.178Z,98208.80
2023-01-08T21:01:57.482Z,98210.39
2023-01-08T21:04:25.963Z,98210.63
2023-01-08T21:06:54.337Z,98204.27
2023-01-08T21:09:22.503Z,98206.19
2023-01-08T21:11:50.993Z,98208.77
2023-01-08T21:14:19.267Z,98206.29
2023-01-08T21:16:47.543Z,98194.30
2023-01-08T21:19:15.671Z,98191.73
2023-01-08T21:21:43.969Z,98190.46
2023-01-08T21:24:13.162Z,98182.59
2023-01-08T21:26:42.215Z,98181.27
2023-01-08T21:29:10.629Z,98178.85
2023-01-08T21:31:38.995Z,98174.88
2023-01-08T21:34:09.116Z,98172.58
2023-01-08T21:36:39.272Z,98164.06
2023-01-08T21:39:07.737Z,98162.74
2023-01-08T21:41:54.728Z,98160.71
2023-01-08T21:44:44.251Z,98144.91
2023-01-08T21:47:16.991Z,98139.66
2023-01-08T21:49:46.359Z,98141.45
2023-01-08T21:52:33.508Z,98133.42
2023-01-08T21:55:02.308Z,98123.14
2023-01-08T21:57:30.569Z,98115.81
2023-01-08T21:59:58.947Z,98110.23
2023-01-08T22:02:27.363Z,98100.64
2023-01-08T22:04:56.393Z,98100.42
2023-01-08T22:07:26.231Z,98097.70
2023-01-08T22:09:54.931Z,98104.50
2023-01-08T22:12:24.379Z,98101.23
2023-01-08T22:14:56.560Z,98104.90
2023-01-08T22:17:26.268Z,98100.25
2023-01-08T22:19:54.449Z,98106.40
2023-01-08T22:22:22.644Z,98104.57
2023-01-08T22:24:52.328Z,98101.40
2023-01-08T22:27:21.664Z,98093.67
2023-01-08T22:29:50.097Z,98083.27
2023-01-08T22:32:18.386Z,98075.77
2023-01-08T22:34:46.766Z,98076.66
2023-01-08T22:37:16.969Z,98080.32
2023-01-08T22:39:46.072Z,98079.30
2023-01-08T22:42:14.777Z,98083.13
2023-01-08T22:44:43.256Z,98079.63
2023-01-08T22:47:11.777Z,98079.98
2023-01-08T22:49:39.805Z,98077.86
2023-01-08T22:52:09.273Z,98080.98
2023-01-08T22:54:38.838Z,98085.34
2023-01-08T22:57:07.541Z,98082.61
2023-01-08T22:59:36.129Z,98078.00
2023-01-08T23:02:04.474Z,98078.16
2023-01-08T23:04:32.648Z,98082.48
2023-01-08T23:07:00.955Z,98078.08
2023-01-08T23:09:29.197Z,98070.92
2023-01-08T23:11:57.218Z,98063.04
2023-01-08T23:14:25.379Z,98060.15
2023-01-08T23:16:53.573Z,98058.13
2023-01-08T23:19:21.591Z,98052.17
2023-01-08T23:21:49.787Z,98047.70
2023-01-08T23:24:18.314Z,98040.97
2023-01-08T23:26:46.341Z,98038.19
2023-01-08T23:29:14.801Z,98034.69
2023-01-08T23:31:44.378Z,98024.30
2023-01-08T23:34:12.578Z,98018.52
2023-01-08T23:36:41.179Z,98016.50
2023-01-08T23:39:10.453Z,98010.71
2023-01-08T23:41:39.027Z,98011.70
2023-01-08T23:44:16.129Z,98003.20
2023-01-08T23:46:46.241Z,97999.58
2023-01-08T23:49:14.547Z,97996.27
2023-01-08T23:51:43.520Z,97991.23
2023-01-08T23:54:12.518Z,97980.67
2023-01-08T23:56:41.326Z,97976.61
2023-01-08T23:59:10.691Z,97976.73
